sensor_id;sensor_type;location;lat;lon;timestamp;P1;durP1;ratioP1;P2;durP2;ratioP2
31724;SDS011;18306;40.960;14.836;2022-12-07T00:00:19;45.17;;;21.00;;
31724;SDS011;18306;40.960;14.836;2022-12-07T00:02:53;42.92;;;22.30;;
31724;SDS011;18306;40.960;14.836;2022-12-07T00:07:52;37.15;;;21.17;;
31724;SDS011;18306;40.960;14.836;2022-12-07T00:10:20;37.35;;;19.67;;
31724;SDS011;18306;40.960;14.836;2022-12-07T00:12:49;36.22;;;19.65;;
31724;SDS011;18306;40.960;14.836;2022-12-07T00:15:21;41.13;;;20.88;;
31724;SDS011;18306;40.960;14.836;2022-12-07T00:17:51;36.33;;;19.35;;
31724;SDS011;18306;40.960;14.836;2022-12-07T00:20:21;41.67;;;20.30;;
31724;SDS011;18306;40.960;14.836;2022-12-07T00:22:50;39.38;;;20.52;;
31724;SDS011;18306;40.960;14.836;2022-12-07T00:25:22;32.20;;;19.38;;
31724;SDS011;18306;40.960;14.836;2022-12-07T00:27:56;41.80;;;21.17;;
31724;SDS011;18306;40.960;14.836;2022-12-07T00:30:25;36.78;;;20.50;;
31724;SDS011;18306;40.960;14.836;2022-12-07T00:32:55;46.17;;;20.70;;
31724;SDS011;18306;40.960;14.836;2022-12-07T00:35:24;40.65;;;20.50;;
31724;SDS011;18306;40.960;14.836;2022-12-07T00:37:54;34.47;;;18.80;;
31724;SDS011;18306;40.960;14.836;2022-12-07T00:40:27;29.50;;;19.33;;
31724;SDS011;18306;40.960;14.836;2022-12-07T00:42:56;33.20;;;18.92;;
31724;SDS011;18306;40.960;14.836;2022-12-07T00:45:24;38.47;;;20.10;;
31724;SDS011;18306;40.960;14.836;2022-12-07T00:47:56;39.88;;;19.13;;
31724;SDS011;18306;40.960;14.836;2022-12-07T00:50:27;33.28;;;18.25;;
31724;SDS011;18306;40.960;14.836;2022-12-07T00:52:58;38.45;;;20.40;;
31724;SDS011;18306;40.960;14.836;2022-12-07T00:55:27;32.03;;;19.42;;
31724;SDS011;18306;40.960;14.836;2022-12-07T00:58:05;33.28;;;19.33;;
31724;SDS011;18306;40.960;14.836;2022-12-07T01:00:38;40.47;;;19.40;;
31724;SDS011;18306;40.960;14.836;2022-12-07T01:03:10;35.70;;;19.67;;
31724;SDS011;18306;40.960;14.836;2022-12-07T01:05:40;41.13;;;19.58;;
31724;SDS011;18306;40.960;14.836;2022-12-07T01:08:18;32.33;;;18.50;;
31724;SDS011;18306;40.960;14.836;2022-12-07T01:10:48;37.08;;;19.75;;
31724;SDS011;18306;40.960;14.836;2022-12-07T01:13:17;34.13;;;19.33;;
31724;SDS011;18306;40.960;14.836;2022-12-07T01:15:46;33.22;;;17.30;;
31724;SDS011;18306;40.960;14.836;2022-12-07T01:18:16;35.13;;;19.27;;
31724;SDS011;18306;40.960;14.836;2022-12-07T01:20:53;29.83;;;17.75;;
31724;SDS011;18306;40.960;14.836;2022-12-07T01:23:35;35.60;;;19.67;;
31724;SDS011;18306;40.960;14.836;2022-12-07T01:26:12;38.30;;;19.70;;
31724;SDS011;18306;40.960;14.836;2022-12-07T01:28:48;31.73;;;18.38;;
31724;SDS011;18306;40.960;14.836;2022-12-07T01:31:18;37.10;;;18.30;;
31724;SDS011;18306;40.960;14.836;2022-12-07T01:33:49;38.55;;;19.80;;
31724;SDS011;18306;40.960;14.836;2022-12-07T01:36:23;37.35;;;20.90;;
31724;SDS011;18306;40.960;14.836;2022-12-07T01:39:00;36.28;;;20.38;;
31724;SDS011;18306;40.960;14.836;2022-12-07T01:41:31;44.00;;;20.63;;
31724;SDS011;18306;40.960;14.836;2022-12-07T01:46:48;40.58;;;20.05;;
31724;SDS011;18306;40.960;14.836;2022-12-07T01:49:34;32.03;;;18.42;;
31724;SDS011;18306;40.960;14.836;2022-12-07T01:52:26;43.85;;;19.67;;
31724;SDS011;18306;40.960;14.836;2022-12-07T01:55:00;38.60;;;20.38;;
31724;SDS011;18306;40.960;14.836;2022-12-07T01:57:34;39.03;;;18.38;;
31724;SDS011;18306;40.960;14.836;2022-12-07T02:00:09;35.40;;;20.33;;
31724;SDS011;18306;40.960;14.836;2022-12-07T02:02:53;44.17;;;19.95;;
31724;SDS011;18306;40.960;14.836;2022-12-07T02:05:29;38.30;;;19.83;;
31724;SDS011;18306;40.960;14.836;2022-12-07T02:07:59;33.25;;;18.27;;
31724;SDS011;18306;40.960;14.836;2022-12-07T02:10:31;39.45;;;20.90;;
31724;SDS011;18306;40.960;14.836;2022-12-07T02:13:01;42.55;;;19.95;;
31724;SDS011;18306;40.960;14.836;2022-12-07T02:15:40;46.50;;;20.15;;
31724;SDS011;18306;40.960;14.836;2022-12-07T02:21:52;45.90;;;20.00;;
31724;SDS011;18306;40.960;14.836;2022-12-07T02:30:15;44.45;;;21.95;;
31724;SDS011;18306;40.960;14.836;2022-12-07T02:33:05;43.55;;;21.15;;
31724;SDS011;18306;40.960;14.836;2022-12-07T02:35:57;42.70;;;20.63;;
31724;SDS011;18306;40.960;14.836;2022-12-07T02:38:31;37.63;;;20.90;;
31724;SDS011;18306;40.960;14.836;2022-12-07T02:41:12;43.90;;;22.70;;
31724;SDS011;18306;40.960;14.836;2022-12-07T02:43:55;38.42;;;20.08;;
31724;SDS011;18306;40.960;14.836;2022-12-07T02:46:57;37.40;;;19.52;;
31724;SDS011;18306;40.960;14.836;2022-12-07T02:49:32;40.85;;;21.70;;
31724;SDS011;18306;40.960;14.836;2022-12-07T02:52:03;43.28;;;20.23;;
31724;SDS011;18306;40.960;14.836;2022-12-07T02:54:33;36.42;;;20.55;;
31724;SDS011;18306;40.960;14.836;2022-12-07T02:57:15;34.03;;;19.63;;
31724;SDS011;18306;40.960;14.836;2022-12-07T03:00:08;44.28;;;21.00;;
31724;SDS011;18306;40.960;14.836;2022-12-07T03:02:50;32.33;;;18.23;;
31724;SDS011;18306;40.960;14.836;2022-12-07T03:06:19;35.45;;;18.13;;
31724;SDS011;18306;40.960;14.836;2022-12-07T03:09:11;45.80;;;20.23;;
31724;SDS011;18306;40.960;14.836;2022-12-07T03:11:50;37.90;;;21.30;;
31724;SDS011;18306;40.960;14.836;2022-12-07T03:14:32;33.10;;;19.33;;
31724;SDS011;18306;40.960;14.836;2022-12-07T03:17:18;40.30;;;21.13;;
31724;SDS011;18306;40.960;14.836;2022-12-07T03:19:51;45.20;;;19.27;;
31724;SDS011;18306;40.960;14.836;2022-12-07T03:22:25;43.15;;;20.92;;
31724;SDS011;18306;40.960;14.836;2022-12-07T03:24:59;39.78;;;20.92;;
31724;SDS011;18306;40.960;14.836;2022-12-07T03:27:42;36.08;;;20.20;;
31724;SDS011;18306;40.960;14.836;2022-12-07T03:36:00;37.33;;;21.23;;
31724;SDS011;18306;40.960;14.836;2022-12-07T03:38:40;36.45;;;19.90;;
31724;SDS011;18306;40.960;14.836;2022-12-07T03:41:18;32.65;;;18.48;;
31724;SDS011;18306;40.960;14.836;2022-12-07T03:43:53;40.03;;;20.92;;
31724;SDS011;18306;40.960;14.836;2022-12-07T03:46:32;42.60;;;20.13;;
31724;SDS011;18306;40.960;14.836;2022-12-07T03:54:54;41.33;;;18.73;;
31724;SDS011;18306;40.960;14.836;2022-12-07T03:57:28;36.83;;;21.10;;
31724;SDS011;18306;40.960;14.836;2022-12-07T03:59:58;40.00;;;19.08;;
31724;SDS011;18306;40.960;14.836;2022-12-07T04:02:38;33.63;;;18.88;;
31724;SDS011;18306;40.960;14.836;2022-12-07T04:05:12;31.75;;;18.77;;
31724;SDS011;18306;40.960;14.836;2022-12-07T04:07:41;36.42;;;20.27;;
31724;SDS011;18306;40.960;14.836;2022-12-07T04:10:10;32.80;;;19.75;;
31724;SDS011;18306;40.960;14.836;2022-12-07T04:12:41;29.63;;;18.98;;
31724;SDS011;18306;40.960;14.836;2022-12-07T04:15:11;30.58;;;18.33;;
31724;SDS011;18306;40.960;14.836;2022-12-07T04:17:42;36.65;;;20.13;;
31724;SDS011;18306;40.960;14.836;2022-12-07T04:20:12;28.27;;;18.58;;
31724;SDS011;18306;40.960;14.836;2022-12-07T04:22:44;30.77;;;18.92;;
31724;SDS011;18306;40.960;14.836;2022-12-07T04:25:13;41.80;;;20.10;;
31724;SDS011;18306;40.960;14.836;2022-12-07T04:27:45;33.97;;;19.33;;
31724;SDS011;18306;40.960;14.836;2022-12-07T04:30:16;37.72;;;20.30;;
31724;SDS011;18306;40.960;14.836;2022-12-07T04:32:49;36.13;;;21.17;;
31724;SDS011;18306;40.960;14.836;2022-12-07T04:35:18;37.97;;;19.27;;
31724;SDS011;18306;40.960;14.836;2022-12-07T04:37:49;30.80;;;17.48;;
31724;SDS011;18306;40.960;14.836;2022-12-07T04:40:19;34.75;;;18.60;;
31724;SDS011;18306;40.960;14.836;2022-12-07T04:42:49;40.20;;;21.05;;
31724;SDS011;18306;40.960;14.836;2022-12-07T04:45:19;45.17;;;20.73;;
31724;SDS011;18306;40.960;14.836;2022-12-07T04:47:52;42.47;;;20.60;;
31724;SDS011;18306;40.960;14.836;2022-12-07T04:50:21;49.58;;;24.88;;
31724;SDS011;18306;40.960;14.836;2022-12-07T04:52:50;44.88;;;26.10;;
31724;SDS011;18306;40.960;14.836;2022-12-07T04:55:20;42.38;;;23.92;;
31724;SDS011;18306;40.960;14.836;2022-12-07T04:57:53;56.38;;;24.33;;
31724;SDS011;18306;40.960;14.836;2022-12-07T05:00:22;46.75;;;23.67;;
31724;SDS011;18306;40.960;14.836;2022-12-07T05:02:51;45.15;;;21.88;;
31724;SDS011;18306;40.960;14.836;2022-12-07T05:05:20;40.38;;;21.40;;
31724;SDS011;18306;40.960;14.836;2022-12-07T05:07:50;39.15;;;19.92;;
31724;SDS011;18306;40.960;14.836;2022-12-07T05:10:20;50.15;;;21.83;;
31724;SDS011;18306;40.960;14.836;2022-12-07T05:12:52;40.58;;;21.27;;
31724;SDS011;18306;40.960;14.836;2022-12-07T05:15:24;39.90;;;20.55;;
31724;SDS011;18306;40.960;14.836;2022-12-07T05:17:53;36.35;;;19.30;;
31724;SDS011;18306;40.960;14.836;2022-12-07T05:20:24;45.80;;;20.17;;
31724;SDS011;18306;40.960;14.836;2022-12-07T05:22:53;55.75;;;22.45;;
31724;SDS011;18306;40.960;14.836;2022-12-07T05:25:22;36.30;;;20.52;;
31724;SDS011;18306;40.960;14.836;2022-12-07T05:27:54;38.70;;;22.08;;
31724;SDS011;18306;40.960;14.836;2022-12-07T05:30:24;38.33;;;19.33;;
31724;SDS011;18306;40.960;14.836;2022-12-07T05:32:55;36.97;;;19.77;;
31724;SDS011;18306;40.960;14.836;2022-12-07T05:35:27;33.00;;;18.17;;
31724;SDS011;18306;40.960;14.836;2022-12-07T05:37:56;42.08;;;20.70;;
31724;SDS011;18306;40.960;14.836;2022-12-07T05:40:27;38.55;;;18.70;;
31724;SDS011;18306;40.960;14.836;2022-12-07T05:42:58;37.05;;;17.98;;
31724;SDS011;18306;40.960;14.836;2022-12-07T05:45:31;40.03;;;18.88;;
31724;SDS011;18306;40.960;14.836;2022-12-07T05:47:59;28.08;;;16.85;;
31724;SDS011;18306;40.960;14.836;2022-12-07T05:50:31;38.95;;;23.33;;
31724;SDS011;18306;40.960;14.836;2022-12-07T05:53:01;35.70;;;22.08;;
31724;SDS011;18306;40.960;14.836;2022-12-07T05:55:29;40.72;;;20.08;;
31724;SDS011;18306;40.960;14.836;2022-12-07T05:57:58;32.63;;;17.05;;
31724;SDS011;18306;40.960;14.836;2022-12-07T06:00:48;31.67;;;17.55;;
31724;SDS011;18306;40.960;14.836;2022-12-07T06:03:20;37.92;;;19.65;;
31724;SDS011;18306;40.960;14.836;2022-12-07T06:05:49;32.83;;;18.98;;
31724;SDS011;18306;40.960;14.836;2022-12-07T06:08:20;28.60;;;17.65;;
31724;SDS011;18306;40.960;14.836;2022-12-07T06:10:49;35.70;;;16.52;;
31724;SDS011;18306;40.960;14.836;2022-12-07T06:13:39;29.80;;;16.20;;
31724;SDS011;18306;40.960;14.836;2022-12-07T06:16:09;30.38;;;16.42;;
31724;SDS011;18306;40.960;14.836;2022-12-07T06:18:38;38.67;;;18.55;;
31724;SDS011;18306;40.960;14.836;2022-12-07T06:21:11;40.08;;;20.02;;
31724;SDS011;18306;40.960;14.836;2022-12-07T06:23:41;36.45;;;20.58;;
31724;SDS011;18306;40.960;14.836;2022-12-07T06:26:11;38.50;;;17.35;;
31724;SDS011;18306;40.960;14.836;2022-12-07T06:28:41;36.13;;;17.73;;
31724;SDS011;18306;40.960;14.836;2022-12-07T06:31:15;32.13;;;17.73;;
31724;SDS011;18306;40.960;14.836;2022-12-07T06:33:56;35.92;;;17.17;;
31724;SDS011;18306;40.960;14.836;2022-12-07T06:36:42;28.05;;;15.98;;
31724;SDS011;18306;40.960;14.836;2022-12-07T06:39:40;29.02;;;16.23;;
31724;SDS011;18306;40.960;14.836;2022-12-07T06:42:20;30.92;;;16.25;;
31724;SDS011;18306;40.960;14.836;2022-12-07T06:44:59;29.63;;;15.02;;
31724;SDS011;18306;40.960;14.836;2022-12-07T06:47:40;24.92;;;15.55;;
31724;SDS011;18306;40.960;14.836;2022-12-07T06:50:18;24.73;;;16.17;;
31724;SDS011;18306;40.960;14.836;2022-12-07T06:53:01;33.35;;;16.15;;
31724;SDS011;18306;40.960;14.836;2022-12-07T06:55:43;30.48;;;16.90;;
31724;SDS011;18306;40.960;14.836;2022-12-07T06:58:28;35.55;;;15.20;;
31724;SDS011;18306;40.960;14.836;2022-12-07T07:01:17;25.58;;;15.38;;
31724;SDS011;18306;40.960;14.836;2022-12-07T07:04:25;27.63;;;15.70;;
31724;SDS011;18306;40.960;14.836;2022-12-07T07:06:59;27.70;;;15.25;;
31724;SDS011;18306;40.960;14.836;2022-12-07T07:09:39;32.55;;;17.02;;
31724;SDS011;18306;40.960;14.836;2022-12-07T07:12:10;22.58;;;14.93;;
31724;SDS011;18306;40.960;14.836;2022-12-07T07:14:41;32.70;;;17.20;;
31724;SDS011;18306;40.960;14.836;2022-12-07T07:17:12;42.20;;;21.95;;
31724;SDS011;18306;40.960;14.836;2022-12-07T07:19:43;35.45;;;18.75;;
31724;SDS011;18306;40.960;14.836;2022-12-07T07:22:14;35.03;;;18.77;;
31724;SDS011;18306;40.960;14.836;2022-12-07T07:24:44;32.42;;;18.30;;
31724;SDS011;18306;40.960;14.836;2022-12-07T07:27:14;35.38;;;18.02;;
31724;SDS011;18306;40.960;14.836;2022-12-07T07:29:46;42.75;;;19.35;;
31724;SDS011;18306;40.960;14.836;2022-12-07T07:32:18;26.67;;;17.52;;
31724;SDS011;18306;40.960;14.836;2022-12-07T07:34:51;41.93;;;22.00;;
31724;SDS011;18306;40.960;14.836;2022-12-07T07:37:20;50.08;;;22.63;;
31724;SDS011;18306;40.960;14.836;2022-12-07T07:39:49;47.08;;;22.83;;
31724;SDS011;18306;40.960;14.836;2022-12-07T07:42:18;48.85;;;22.40;;
31724;SDS011;18306;40.960;14.836;2022-12-07T07:44:48;38.63;;;19.60;;
31724;SDS011;18306;40.960;14.836;2022-12-07T07:47:19;42.95;;;21.55;;
31724;SDS011;18306;40.960;14.836;2022-12-07T07:49:47;39.05;;;21.50;;
31724;SDS011;18306;40.960;14.836;2022-12-07T07:52:16;34.25;;;20.33;;
31724;SDS011;18306;40.960;14.836;2022-12-07T07:54:46;38.75;;;21.63;;
31724;SDS011;18306;40.960;14.836;2022-12-07T07:57:15;32.60;;;21.02;;
31724;SDS011;18306;40.960;14.836;2022-12-07T07:59:49;33.92;;;19.23;;
31724;SDS011;18306;40.960;14.836;2022-12-07T08:02:23;35.17;;;19.75;;
31724;SDS011;18306;40.960;14.836;2022-12-07T08:04:53;37.78;;;19.33;;
31724;SDS011;18306;40.960;14.836;2022-12-07T08:07:29;35.60;;;18.92;;
31724;SDS011;18306;40.960;14.836;2022-12-07T08:10:01;42.60;;;20.63;;
31724;SDS011;18306;40.960;14.836;2022-12-07T08:12:31;35.25;;;16.52;;
31724;SDS011;18306;40.960;14.836;2022-12-07T08:15:25;36.78;;;20.08;;
31724;SDS011;18306;40.960;14.836;2022-12-07T08:17:57;37.08;;;19.35;;
31724;SDS011;18306;40.960;14.836;2022-12-07T08:20:29;38.22;;;20.83;;
31724;SDS011;18306;40.960;14.836;2022-12-07T08:23:03;34.05;;;19.00;;
31724;SDS011;18306;40.960;14.836;2022-12-07T08:25:34;43.53;;;18.95;;
31724;SDS011;18306;40.960;14.836;2022-12-07T08:28:04;30.70;;;18.80;;
31724;SDS011;18306;40.960;14.836;2022-12-07T08:30:33;35.85;;;19.42;;
31724;SDS011;18306;40.960;14.836;2022-12-07T08:33:04;37.55;;;20.95;;
31724;SDS011;18306;40.960;14.836;2022-12-07T08:35:38;39.55;;;19.10;;
31724;SDS011;18306;40.960;14.836;2022-12-07T08:38:09;34.15;;;19.75;;
31724;SDS011;18306;40.960;14.836;2022-12-07T08:40:43;47.30;;;19.95;;
31724;SDS011;18306;40.960;14.836;2022-12-07T08:43:16;37.03;;;17.73;;
31724;SDS011;18306;40.960;14.836;2022-12-07T08:45:48;34.83;;;18.58;;
31724;SDS011;18306;40.960;14.836;2022-12-07T08:48:28;37.00;;;21.88;;
31724;SDS011;18306;40.960;14.836;2022-12-07T08:51:01;47.78;;;22.48;;
31724;SDS011;18306;40.960;14.836;2022-12-07T08:53:35;43.80;;;21.05;;
31724;SDS011;18306;40.960;14.836;2022-12-07T08:56:07;37.40;;;20.52;;
31724;SDS011;18306;40.960;14.836;2022-12-07T08:58:38;45.28;;;18.13;;
31724;SDS011;18306;40.960;14.836;2022-12-07T09:01:15;37.08;;;19.50;;
31724;SDS011;18306;40.960;14.836;2022-12-07T09:03:54;32.05;;;18.15;;
31724;SDS011;18306;40.960;14.836;2022-12-07T09:06:25;28.02;;;16.25;;
31724;SDS011;18306;40.960;14.836;2022-12-07T09:08:57;29.27;;;15.10;;
31724;SDS011;18306;40.960;14.836;2022-12-07T09:11:30;51.45;;;19.63;;
31724;SDS011;18306;40.960;14.836;2022-12-07T09:13:59;31.45;;;14.88;;
31724;SDS011;18306;40.960;14.836;2022-12-07T09:16:29;20.17;;;12.60;;
31724;SDS011;18306;40.960;14.836;2022-12-07T09:18:59;25.65;;;13.23;;
31724;SDS011;18306;40.960;14.836;2022-12-07T09:21:34;28.17;;;15.68;;
31724;SDS011;18306;40.960;14.836;2022-12-07T09:24:04;27.35;;;13.60;;
31724;SDS011;18306;40.960;14.836;2022-12-07T09:26:36;24.10;;;12.55;;
31724;SDS011;18306;40.960;14.836;2022-12-07T09:29:12;30.27;;;14.13;;
31724;SDS011;18306;40.960;14.836;2022-12-07T09:31:41;33.33;;;15.65;;
31724;SDS011;18306;40.960;14.836;2022-12-07T09:34:15;20.10;;;9.83;;
31724;SDS011;18306;40.960;14.836;2022-12-07T09:36:50;20.33;;;10.35;;
31724;SDS011;18306;40.960;14.836;2022-12-07T09:39:22;23.80;;;9.43;;
31724;SDS011;18306;40.960;14.836;2022-12-07T09:44:26;32.30;;;13.32;;
31724;SDS011;18306;40.960;14.836;2022-12-07T09:46:57;19.38;;;10.75;;
31724;SDS011;18306;40.960;14.836;2022-12-07T09:49:30;21.35;;;10.60;;
31724;SDS011;18306;40.960;14.836;2022-12-07T09:54:48;16.05;;;6.80;;
31724;SDS011;18306;40.960;14.836;2022-12-07T09:57:21;19.02;;;8.13;;
31724;SDS011;18306;40.960;14.836;2022-12-07T10:00:02;22.02;;;8.77;;
31724;SDS011;18306;40.960;14.836;2022-12-07T10:02:40;15.45;;;7.50;;
31724;SDS011;18306;40.960;14.836;2022-12-07T10:05:25;25.10;;;7.43;;
31724;SDS011;18306;40.960;14.836;2022-12-07T10:08:13;19.20;;;8.07;;
31724;SDS011;18306;40.960;14.836;2022-12-07T10:10:52;20.98;;;7.43;;
31724;SDS011;18306;40.960;14.836;2022-12-07T10:13:36;15.40;;;7.25;;
31724;SDS011;18306;40.960;14.836;2022-12-07T10:18:56;10.38;;;6.18;;
31724;SDS011;18306;40.960;14.836;2022-12-07T10:22:02;21.77;;;9.05;;
31724;SDS011;18306;40.960;14.836;2022-12-07T10:24:39;28.02;;;11.80;;
31724;SDS011;18306;40.960;14.836;2022-12-07T10:27:21;25.75;;;9.95;;
31724;SDS011;18306;40.960;14.836;2022-12-07T10:29:55;16.63;;;8.40;;
31724;SDS011;18306;40.960;14.836;2022-12-07T10:35:18;23.17;;;9.27;;
31724;SDS011;18306;40.960;14.836;2022-12-07T10:37:49;17.05;;;8.23;;
31724;SDS011;18306;40.960;14.836;2022-12-07T10:40:25;16.58;;;7.32;;
31724;SDS011;18306;40.960;14.836;2022-12-07T10:51:46;11.23;;;4.07;;
31724;SDS011;18306;40.960;14.836;2022-12-07T10:54:43;13.75;;;5.78;;
31724;SDS011;18306;40.960;14.836;2022-12-07T11:03:05;8.35;;;3.45;;
31724;SDS011;18306;40.960;14.836;2022-12-07T11:12:04;17.67;;;5.10;;
31724;SDS011;18306;40.960;14.836;2022-12-07T11:14:55;11.25;;;5.03;;
31724;SDS011;18306;40.960;14.836;2022-12-07T11:26:03;19.05;;;7.68;;
31724;SDS011;18306;40.960;14.836;2022-12-07T11:37:13;18.55;;;8.82;;
31724;SDS011;18306;40.960;14.836;2022-12-07T11:39:50;15.07;;;6.55;;
31724;SDS011;18306;40.960;14.836;2022-12-07T11:42:27;10.13;;;5.03;;
31724;SDS011;18306;40.960;14.836;2022-12-07T11:48:00;10.50;;;4.40;;
31724;SDS011;18306;40.960;14.836;2022-12-07T11:53:20;16.58;;;4.85;;
31724;SDS011;18306;40.960;14.836;2022-12-07T11:56:14;7.65;;;4.40;;
31724;SDS011;18306;40.960;14.836;2022-12-07T12:01:36;15.43;;;4.72;;
31724;SDS011;18306;40.960;14.836;2022-12-07T12:04:23;14.30;;;4.35;;
31724;SDS011;18306;40.960;14.836;2022-12-07T12:07:15;18.92;;;5.55;;
31724;SDS011;18306;40.960;14.836;2022-12-07T12:09:54;9.15;;;5.40;;
31724;SDS011;18306;40.960;14.836;2022-12-07T12:12:55;8.30;;;5.32;;
31724;SDS011;18306;40.960;14.836;2022-12-07T12:18:35;7.22;;;3.55;;
31724;SDS011;18306;40.960;14.836;2022-12-07T12:21:19;7.18;;;4.30;;
31724;SDS011;18306;40.960;14.836;2022-12-07T12:24:14;12.63;;;4.35;;
31724;SDS011;18306;40.960;14.836;2022-12-07T12:26:50;11.68;;;5.65;;
31724;SDS011;18306;40.960;14.836;2022-12-07T12:30:04;8.43;;;3.45;;
31724;SDS011;18306;40.960;14.836;2022-12-07T12:32:53;7.50;;;3.60;;
31724;SDS011;18306;40.960;14.836;2022-12-07T12:35:35;17.92;;;8.95;;
31724;SDS011;18306;40.960;14.836;2022-12-07T12:38:24;9.60;;;4.50;;
31724;SDS011;18306;40.960;14.836;2022-12-07T12:41:02;19.08;;;4.43;;
31724;SDS011;18306;40.960;14.836;2022-12-07T12:43:54;11.95;;;3.60;;
31724;SDS011;18306;40.960;14.836;2022-12-07T12:54:59;13.73;;;3.55;;
31724;SDS011;18306;40.960;14.836;2022-12-07T12:57:41;11.63;;;5.53;;
31724;SDS011;18306;40.960;14.836;2022-12-07T13:05:31;11.73;;;4.78;;
31724;SDS011;18306;40.960;14.836;2022-12-07T13:08:10;9.55;;;4.25;;
31724;SDS011;18306;40.960;14.836;2022-12-07T13:10:50;12.27;;;4.60;;
31724;SDS011;18306;40.960;14.836;2022-12-07T13:15:54;9.63;;;5.10;;
31724;SDS011;18306;40.960;14.836;2022-12-07T13:18:37;12.43;;;4.60;;
31724;SDS011;18306;40.960;14.836;2022-12-07T13:26:35;11.93;;;4.88;;
31724;SDS011;18306;40.960;14.836;2022-12-07T13:29:17;13.25;;;7.38;;
31724;SDS011;18306;40.960;14.836;2022-12-07T13:31:52;23.92;;;9.95;;
31724;SDS011;18306;40.960;14.836;2022-12-07T13:34:37;15.95;;;8.20;;
31724;SDS011;18306;40.960;14.836;2022-12-07T13:39:54;22.85;;;9.25;;
31724;SDS011;18306;40.960;14.836;2022-12-07T13:42:35;11.77;;;6.18;;
31724;SDS011;18306;40.960;14.836;2022-12-07T13:45:22;12.82;;;6.60;;
31724;SDS011;18306;40.960;14.836;2022-12-07T13:48:21;18.55;;;6.88;;
31724;SDS011;18306;40.960;14.836;2022-12-07T13:51:01;11.15;;;6.05;;
31724;SDS011;18306;40.960;14.836;2022-12-07T13:53:33;11.85;;;6.60;;
31724;SDS011;18306;40.960;14.836;2022-12-07T13:56:20;14.25;;;6.93;;
31724;SDS011;18306;40.960;14.836;2022-12-07T13:58:59;17.63;;;7.32;;
31724;SDS011;18306;40.960;14.836;2022-12-07T14:01:34;13.85;;;7.50;;
31724;SDS011;18306;40.960;14.836;2022-12-07T14:07:18;17.92;;;8.30;;
31724;SDS011;18306;40.960;14.836;2022-12-07T14:10:00;13.40;;;7.53;;
31724;SDS011;18306;40.960;14.836;2022-12-07T14:12:38;14.73;;;6.72;;
31724;SDS011;18306;40.960;14.836;2022-12-07T14:15:19;14.40;;;7.70;;
31724;SDS011;18306;40.960;14.836;2022-12-07T14:17:59;12.20;;;7.38;;
31724;SDS011;18306;40.960;14.836;2022-12-07T14:20:40;12.15;;;7.18;;
31724;SDS011;18306;40.960;14.836;2022-12-07T14:23:23;17.17;;;7.25;;
31724;SDS011;18306;40.960;14.836;2022-12-07T14:26:05;15.63;;;7.15;;
31724;SDS011;18306;40.960;14.836;2022-12-07T14:28:37;19.88;;;7.50;;
31724;SDS011;18306;40.960;14.836;2022-12-07T14:31:11;17.42;;;6.72;;
31724;SDS011;18306;40.960;14.836;2022-12-07T14:33:45;10.82;;;6.80;;
31724;SDS011;18306;40.960;14.836;2022-12-07T14:36:17;10.10;;;5.85;;
31724;SDS011;18306;40.960;14.836;2022-12-07T14:38:49;12.07;;;6.25;;
31724;SDS011;18306;40.960;14.836;2022-12-07T14:41:28;13.88;;;6.50;;
31724;SDS011;18306;40.960;14.836;2022-12-07T14:44:21;15.15;;;5.85;;
31724;SDS011;18306;40.960;14.836;2022-12-07T14:46:53;20.13;;;5.60;;
31724;SDS011;18306;40.960;14.836;2022-12-07T14:49:26;9.05;;;5.03;;
31724;SDS011;18306;40.960;14.836;2022-12-07T14:51:59;13.02;;;4.88;;
31724;SDS011;18306;40.960;14.836;2022-12-07T14:54:35;11.10;;;5.30;;
31724;SDS011;18306;40.960;14.836;2022-12-07T14:57:08;27.70;;;6.05;;
31724;SDS011;18306;40.960;14.836;2022-12-07T14:59:43;16.75;;;5.50;;
31724;SDS011;18306;40.960;14.836;2022-12-07T15:02:14;10.32;;;4.90;;
31724;SDS011;18306;40.960;14.836;2022-12-07T15:04:49;16.17;;;6.00;;
31724;SDS011;18306;40.960;14.836;2022-12-07T15:07:35;20.45;;;5.88;;
31724;SDS011;18306;40.960;14.836;2022-12-07T15:10:13;13.88;;;5.97;;
31724;SDS011;18306;40.960;14.836;2022-12-07T15:13:00;10.55;;;5.75;;
31724;SDS011;18306;40.960;14.836;2022-12-07T15:15:52;15.52;;;5.85;;
31724;SDS011;18306;40.960;14.836;2022-12-07T15:21:03;19.95;;;6.47;;
31724;SDS011;18306;40.960;14.836;2022-12-07T15:23:35;15.13;;;5.75;;
31724;SDS011;18306;40.960;14.836;2022-12-07T15:26:09;16.20;;;6.35;;
31724;SDS011;18306;40.960;14.836;2022-12-07T15:28:41;20.88;;;7.13;;
31724;SDS011;18306;40.960;14.836;2022-12-07T15:31:16;14.93;;;6.20;;
31724;SDS011;18306;40.960;14.836;2022-12-07T15:33:52;23.27;;;8.07;;
31724;SDS011;18306;40.960;14.836;2022-12-07T15:36:26;33.57;;;9.03;;
31724;SDS011;18306;40.960;14.836;2022-12-07T15:38:59;18.42;;;8.25;;
31724;SDS011;18306;40.960;14.836;2022-12-07T15:41:34;20.90;;;9.40;;
31724;SDS011;18306;40.960;14.836;2022-12-07T15:44:05;30.05;;;8.55;;
31724;SDS011;18306;40.960;14.836;2022-12-07T15:47:01;21.95;;;10.10;;
31724;SDS011;18306;40.960;14.836;2022-12-07T15:49:40;28.20;;;11.15;;
31724;SDS011;18306;40.960;14.836;2022-12-07T15:52:15;15.68;;;7.90;;
31724;SDS011;18306;40.960;14.836;2022-12-07T15:54:48;24.30;;;8.20;;
31724;SDS011;18306;40.960;14.836;2022-12-07T15:57:18;17.30;;;8.30;;
31724;SDS011;18306;40.960;14.836;2022-12-07T15:59:51;19.13;;;9.18;;
31724;SDS011;18306;40.960;14.836;2022-12-07T16:02:21;22.02;;;9.98;;
31724;SDS011;18306;40.960;14.836;2022-12-07T16:04:54;33.05;;;14.68;;
31724;SDS011;18306;40.960;14.836;2022-12-07T16:07:31;33.03;;;12.80;;
31724;SDS011;18306;40.960;14.836;2022-12-07T16:09:59;24.35;;;12.40;;
31724;SDS011;18306;40.960;14.836;2022-12-07T16:12:32;29.80;;;13.02;;
31724;SDS011;18306;40.960;14.836;2022-12-07T16:15:01;22.00;;;12.38;;
31724;SDS011;18306;40.960;14.836;2022-12-07T16:17:34;36.90;;;14.48;;
31724;SDS011;18306;40.960;14.836;2022-12-07T16:20:10;21.73;;;11.13;;
31724;SDS011;18306;40.960;14.836;2022-12-07T16:25:16;24.13;;;10.38;;
31724;SDS011;18306;40.960;14.836;2022-12-07T16:27:50;22.38;;;9.80;;
31724;SDS011;18306;40.960;14.836;2022-12-07T16:30:20;22.13;;;10.00;;
31724;SDS011;18306;40.960;14.836;2022-12-07T16:32:50;22.13;;;11.18;;
31724;SDS011;18306;40.960;14.836;2022-12-07T16:35:29;29.10;;;12.55;;
31724;SDS011;18306;40.960;14.836;2022-12-07T16:51:05;25.42;;;9.95;;
31724;SDS011;18306;40.960;14.836;2022-12-07T16:53:34;19.73;;;8.55;;
31724;SDS011;18306;40.960;14.836;2022-12-07T16:56:02;21.65;;;8.20;;
31724;SDS011;18306;40.960;14.836;2022-12-07T16:58:31;14.68;;;8.60;;
31724;SDS011;18306;40.960;14.836;2022-12-07T17:00:58;17.15;;;7.95;;
31724;SDS011;18306;40.960;14.836;2022-12-07T17:03:24;19.60;;;9.27;;
31724;SDS011;18306;40.960;14.836;2022-12-07T17:05:51;19.50;;;8.15;;
31724;SDS011;18306;40.960;14.836;2022-12-07T17:08:20;17.63;;;9.20;;
31724;SDS011;18306;40.960;14.836;2022-12-07T17:10:48;20.10;;;8.98;;
31724;SDS011;18306;40.960;14.836;2022-12-07T17:13:33;23.27;;;10.13;;